Time;durP1;ratioP1;P1;durP2;ratioP2;P2;SDS_P1;SDS_P2;PMS_P1;PMS_P2;Temp;Humidity;BMP_temperature;BMP_pressure;BME280_temperature;BME280_humidity;BME280_pressure;Samples;Min_cycle;Max_cycle;Signal;HPM_P1;HPM_P2
2023/08/19 00:02:12;;;;;;;5.00;4.47;;;29.10;72.50;;;;;;4995008;28;20030;-78
2023/08/19 00:04:37;;;;;;;7.65;5.30;;;29.10;72.70;;;;;;5013321;28;20101;-77
2023/08/19 00:07:03;;;;;;;7.13;4.57;;;29.10;72.70;;;;;;5012779;28;20033;-78
2023/08/19 00:09:29;;;;;;;6.30;5.00;;;29.00;72.70;;;;;;5012785;28;20018;-78
2023/08/19 00:11:55;;;;;;;4.88;4.32;;;29.00;72.80;;;;;;5012620;28;20057;-78
2023/08/19 00:14:20;;;;;;;8.05;5.78;;;29.00;73.00;;;;;;5013009;28;20026;-78
2023/08/19 00:16:46;;;;;;;5.35;4.78;;;29.00;73.00;;;;;;5012254;28;20026;-78
2023/08/19 00:19:12;;;;;;;5.22;4.72;;;29.00;73.10;;;;;;5012727;28;20109;-79
2023/08/19 00:21:38;;;;;;;7.47;4.93;;;29.00;73.30;;;;;;5012480;28;20030;-79
2023/08/19 00:24:04;;;;;;;5.05;4.50;;;28.80;73.30;;;;;;5016333;28;20037;-78
2023/08/19 00:26:29;;;;;;;6.47;5.40;;;28.90;73.40;;;;;;5022907;28;20046;-78
2023/08/19 00:28:55;;;;;;;5.30;4.65;;;28.80;73.50;;;;;;5015741;28;20030;-78
2023/08/19 00:31:21;;;;;;;7.00;4.43;;;28.80;73.50;;;;;;5008683;28;20382;-78
2023/08/19 00:33:46;;;;;;;6.53;4.63;;;28.80;73.50;;;;;;5016436;28;20038;-79
2023/08/19 00:36:12;;;;;;;5.68;4.97;;;28.80;73.50;;;;;;5016537;28;20021;-79
2023/08/19 00:38:38;;;;;;;6.82;4.78;;;28.80;73.60;;;;;;5020233;28;20514;-80
2023/08/19 00:41:03;;;;;;;6.57;5.25;;;28.80;73.70;;;;;;5016421;28;20030;-79
2023/08/19 00:43:30;;;;;;;8.43;5.13;;;28.80;73.70;;;;;;5016033;28;20037;-77
2023/08/19 00:45:56;;;;;;;6.53;4.75;;;28.70;73.70;;;;;;5021572;28;20367;-77
2023/08/19 00:48:25;;;;;;;5.18;4.60;;;28.70;73.80;;;;;;5015538;28;20394;-78
2023/08/19 00:50:51;;;;;;;7.97;5.35;;;28.70;74.00;;;;;;5015325;28;20065;-78
2023/08/19 00:53:17;;;;;;;5.82;4.82;;;28.70;74.30;;;;;;5015477;28;20477;-78
2023/08/19 00:55:43;;;;;;;5.68;5.03;;;28.70;74.50;;;;;;4997777;28;20034;-78
2023/08/19 00:58:09;;;;;;;7.72;5.50;;;28.70;74.70;;;;;;5015536;28;20085;-78
2023/08/19 01:00:35;;;;;;;6.30;5.05;;;28.70;74.90;;;;;;5013905;28;20061;-78
2023/08/19 01:03:06;;;;;;;6.13;5.05;;;28.70;75.10;;;;;;5015226;28;20045;-78
2023/08/19 01:05:37;;;;;;;5.88;4.97;;;28.60;75.20;;;;;;5015053;28;20034;-78
2023/08/19 01:08:07;;;;;;;8.07;5.70;;;28.60;75.70;;;;;;5011252;28;20048;-78
2023/08/19 01:11:01;;;;;;;7.10;6.05;;;28.60;75.90;;;;;;5015620;28;20038;-78
2023/08/19 01:13:44;;;;;;;6.35;5.60;;;28.60;76.20;;;;;;5015599;28;20037;-78
2023/08/19 01:16:25;;;;;;;9.10;5.95;;;28.50;76.50;;;;;;5015611;28;20057;-79
2023/08/19 01:18:52;;;;;;;7.57;5.68;;;28.50;76.80;;;;;;4996458;28;20171;-80
2023/08/19 01:21:18;;;;;;;5.88;5.25;;;28.40;76.90;;;;;;5020850;28;20034;-78
2023/08/19 01:23:47;;;;;;;6.30;5.70;;;28.40;77.20;;;;;;5015677;28;20058;-79
2023/08/19 01:26:12;;;;;;;8.50;6.43;;;28.40;77.70;;;;;;5015352;28;20026;-79
2023/08/19 01:28:38;;;;;;;6.60;5.93;;;28.40;77.90;;;;;;5015797;28;20024;-79
2023/08/19 01:31:04;;;;;;;10.27;5.97;;;28.40;78.10;;;;;;4979605;28;20039;-79
2023/08/19 01:33:30;;;;;;;6.40;5.55;;;28.30;78.30;;;;;;4977386;28;20073;-79
2023/08/19 01:35:59;;;;;;;6.47;5.60;;;28.30;78.20;;;;;;4996018;28;20069;-79
2023/08/19 01:38:49;;;;;;;6.70;5.85;;;28.30;78.50;;;;;;5013700;28;20022;-79
2023/08/19 01:41:18;;;;;;;9.20;6.47;;;28.20;78.80;;;;;;5014043;28;20046;-79
2023/08/19 01:43:45;;;;;;;8.73;6.65;;;28.20;79.20;;;;;;5015261;28;20026;-79
2023/08/19 01:46:11;;;;;;;9.00;7.00;;;28.20;79.40;;;;;;5015227;28;20033;-79
2023/08/19 01:48:36;;;;;;;7.28;6.57;;;28.10;79.80;;;;;;5015086;28;20490;-78
2023/08/19 01:51:02;;;;;;;7.95;6.97;;;28.10;80.00;;;;;;5014964;28;20041;-79
2023/08/19 01:53:28;;;;;;;7.75;6.95;;;28.10;80.30;;;;;;5015145;28;20038;-79
2023/08/19 01:55:54;;;;;;;7.85;7.05;;;28.10;80.40;;;;;;5014690;28;20506;-79
2023/08/19 01:58:19;;;;;;;9.98;6.78;;;28.00;80.70;;;;;;5014793;28;20026;-80
2023/08/19 02:00:45;;;;;;;8.35;6.30;;;28.00;80.90;;;;;;5003852;28;20484;-78
2023/08/19 02:03:11;;;;;;;7.47;6.13;;;28.00;81.00;;;;;;5014747;28;20084;-80
2023/08/19 02:05:36;;;;;;;7.03;6.32;;;28.00;81.10;;;;;;5014722;28;20029;-80
2023/08/19 02:08:02;;;;;;;8.23;6.05;;;28.00;81.20;;;;;;5016719;28;20033;-80
2023/08/19 02:10:28;;;;;;;8.23;6.53;;;28.00;81.40;;;;;;5014178;28;20069;-80
2023/08/19 02:12:54;;;;;;;8.55;6.43;;;28.00;81.50;;;;;;5014388;28;20069;-79
2023/08/19 02:15:19;;;;;;;7.10;5.80;;;28.00;81.60;;;;;;5014960;28;20053;-78
2023/08/19 02:17:45;;;;;;;6.85;5.85;;;27.90;81.60;;;;;;5014557;28;20033;-80
2023/08/19 02:20:11;;;;;;;8.43;5.88;;;28.00;81.80;;;;;;5014214;28;20022;-81
2023/08/19 02:22:40;;;;;;;9.68;6.63;;;28.00;81.70;;;;;;5013696;28;20088;-81
2023/08/19 02:25:06;;;;;;;6.95;6.25;;;28.00;81.80;;;;;;5014004;28;20049;-81
2023/08/19 02:27:31;;;;;;;7.43;5.88;;;28.00;81.90;;;;;;5017258;28;20069;-81
2023/08/19 02:29:58;;;;;;;7.47;6.60;;;28.00;81.80;;;;;;5027779;28;20041;-81
2023/08/19 02:32:24;;;;;;;7.10;6.20;;;28.00;81.90;;;;;;5014371;28;20034;-81
2023/08/19 02:34:49;;;;;;;8.35;5.68;;;28.00;82.00;;;;;;5014218;28;20057;-81
2023/08/19 02:37:15;;;;;;;8.48;5.97;;;28.00;82.00;;;;;;5014223;28;20532;-80
2023/08/19 02:39:41;;;;;;;7.53;6.40;;;28.00;82.00;;;;;;5014171;28;20022;-80
2023/08/19 02:42:07;;;;;;;8.13;6.65;;;28.00;82.10;;;;;;5012680;28;20030;-79
2023/08/19 02:44:32;;;;;;;7.90;7.00;;;28.00;82.60;;;;;;4996369;28;20450;-80
2023/08/19 02:46:59;;;;;;;7.40;6.53;;;28.00;82.00;;;;;;5013346;28;20125;-80
2023/08/19 02:49:26;;;;;;;8.85;6.50;;;27.90;81.90;;;;;;5015049;28;20049;-80
2023/08/19 02:51:52;;;;;;;9.25;7.10;;;27.90;82.30;;;;;;5013940;28;20061;-79
2023/08/19 02:54:17;;;;;;;8.18;6.55;;;27.80;82.40;;;;;;5013604;28;20057;-79
2023/08/19 02:56:43;;;;;;;8.18;7.32;;;27.70;82.50;;;;;;5013247;28;20065;-80
2023/08/19 02:59:09;;;;;;;7.50;6.70;;;27.60;82.80;;;;;;5017382;28;20034;-80
2023/08/19 03:01:35;;;;;;;10.30;7.53;;;27.60;83.30;;;;;;5006736;28;20028;-79
2023/08/19 03:06:36;;;;;;;9.88;7.32;;;27.40;83.60;;;;;;5029742;28;20053;-82
2023/08/19 03:09:01;;;;;;;8.60;7.70;;;27.40;84.00;;;;;;5032989;28;20041;-81
2023/08/19 03:11:27;;;;;;;9.25;8.27;;;27.30;83.90;;;;;;5032859;28;20449;-77
2023/08/19 03:13:54;;;;;;;8.68;7.75;;;27.30;84.40;;;;;;5014380;28;20029;-78
2023/08/19 03:16:20;;;;;;;9.55;7.70;;;27.30;84.80;;;;;;5014237;28;20053;-77
2023/08/19 03:18:46;;;;;;;10.57;8.38;;;27.20;84.70;;;;;;5033154;28;20036;-77
2023/08/19 03:21:12;;;;;;;11.35;8.30;;;27.20;85.10;;;;;;5033026;28;20021;-77
2023/08/19 03:23:37;;;;;;;9.50;6.68;;;27.20;85.30;;;;;;5032530;28;20436;-77
2023/08/19 03:26:03;;;;;;;8.27;7.28;;;27.30;85.50;;;;;;5032980;28;20029;-77
2023/08/19 03:28:29;;;;;;;9.82;8.75;;;27.30;85.50;;;;;;5032703;28;20043;-77
2023/08/19 03:30:54;;;;;;;7.80;7.07;;;27.40;85.60;;;;;;5032949;28;20109;-77
2023/08/19 03:33:20;;;;;;;12.93;8.30;;;27.40;85.60;;;;;;5031982;28;20038;-77
2023/08/19 03:35:46;;;;;;;8.93;7.95;;;27.40;85.80;;;;;;5032831;28;20057;-76
2023/08/19 03:38:13;;;;;;;9.25;7.90;;;27.40;86.30;;;;;;5032004;28;20030;-76
2023/08/19 03:40:39;;;;;;;11.13;7.80;;;27.40;85.80;;;;;;5032522;28;20068;-78
2023/08/19 03:43:07;;;;;;;9.43;7.40;;;27.30;86.00;;;;;;5014457;28;20057;-79
2023/08/19 03:45:34;;;;;;;10.40;7.45;;;27.30;86.00;;;;;;5025325;28;20034;-76
2023/08/19 03:48:00;;;;;;;8.13;7.32;;;27.40;86.10;;;;;;5031922;28;20037;-76
2023/08/19 03:50:25;;;;;;;8.30;7.15;;;27.40;86.00;;;;;;5031312;28;20032;-77
2023/08/19 03:52:51;;;;;;;8.95;7.05;;;27.40;86.00;;;;;;5032023;28;20449;-76
2023/08/19 03:55:17;;;;;;;8.48;6.78;;;27.40;85.90;;;;;;5014611;28;20492;-76
2023/08/19 03:57:42;;;;;;;8.43;7.53;;;27.40;86.00;;;;;;5034302;28;20037;-76
2023/08/19 04:00:09;;;;;;;7.95;7.15;;;27.40;86.00;;;;;;5036152;28;20036;-80
2023/08/19 04:02:35;;;;;;;8.07;6.80;;;27.40;85.90;;;;;;5035251;28;20025;-80
2023/08/19 04:05:05;;;;;;;7.47;6.47;;;27.40;85.90;;;;;;5035907;28;20496;-80
2023/08/19 04:07:31;;;;;;;8.45;7.38;;;27.40;85.90;;;;;;5035818;28;20033;-80
2023/08/19 04:09:57;;;;;;;8.35;6.10;;;27.40;86.00;;;;;;5017990;28;20424;-79
2023/08/19 04:12:26;;;;;;;9.52;6.30;;;27.40;85.90;;;;;;5035463;28;20362;-81
2023/08/19 04:14:52;;;;;;;8.02;7.00;;;27.40;86.00;;;;;;5036225;28;20108;-80
2023/08/19 04:17:18;;;;;;;9.15;6.90;;;27.40;85.90;;;;;;5035227;28;20034;-80
2023/08/19 04:19:45;;;;;;;7.45;6.60;;;27.40;85.90;;;;;;5036023;28;20022;-82
2023/08/19 04:22:13;;;;;;;8.70;6.90;;;27.40;85.90;;;;;;5019132;28;20037;-80
2023/08/19 04:24:38;;;;;;;7.38;6.63;;;27.40;85.80;;;;;;5036125;28;20453;-81
2023/08/19 04:27:04;;;;;;;6.78;6.10;;;27.40;85.80;;;;;;5035766;28;20037;-81
2023/08/19 04:29:32;;;;;;;7.47;6.40;;;27.40;85.90;;;;;;5035776;28;20057;-80
2023/08/19 04:32:02;;;;;;;7.82;6.20;;;27.40;85.90;;;;;;5019809;28;20033;-79
2023/08/19 04:34:31;;;;;;;7.50;6.80;;;27.40;86.00;;;;;;5035010;28;20025;-78
2023/08/19 04:36:57;;;;;;;7.73;7.03;;;27.40;85.90;;;;;;5035620;28;20029;-77
2023/08/19 04:39:24;;;;;;;7.30;6.60;;;27.40;86.00;;;;;;5035436;28;20392;-78
2023/08/19 04:41:50;;;;;;;10.23;6.72;;;27.40;86.00;;;;;;5034986;28;20108;-78
2023/08/19 04:44:16;;;;;;;8.10;6.20;;;27.30;86.00;;;;;;5035609;28;20112;-77
2023/08/19 04:46:42;;;;;;;6.65;5.97;;;27.30;86.10;;;;;;5017050;28;20354;-78
2023/08/19 04:49:08;;;;;;;7.18;5.55;;;27.30;86.10;;;;;;5035533;28;20040;-78
2023/08/19 04:51:35;;;;;;;7.30;6.40;;;27.40;86.10;;;;;;5034069;28;20069;-78
2023/08/19 04:54:01;;;;;;;8.15;6.40;;;27.40;86.10;;;;;;5032791;28;20041;-84
2023/08/19 04:56:27;;;;;;;7.70;6.85;;;27.40;86.00;;;;;;5031277;28;20030;-77
2023/08/19 04:58:52;;;;;;;6.82;6.15;;;27.40;86.00;;;;;;5032179;28;20025;-77
2023/08/19 05:01:20;;;;;;;6.65;5.95;;;27.40;86.00;;;;;;5028872;28;20028;-77
2023/08/19 05:03:45;;;;;;;6.93;6.22;;;27.40;86.70;;;;;;5028874;28;20033;-76
2023/08/19 05:06:12;;;;;;;7.20;6.43;;;27.40;86.30;;;;;;5031335;28;20048;-76
2023/08/19 05:08:38;;;;;;;6.60;5.88;;;27.40;86.30;;;;;;5032415;28;20025;-80
2023/08/19 05:11:03;;;;;;;7.28;6.13;;;27.50;86.40;;;;;;5034221;28;20487;-77
2023/08/19 05:13:29;;;;;;;9.18;6.20;;;27.50;86.40;;;;;;5035153;28;20561;-77
2023/08/19 05:15:55;;;;;;;6.90;6.00;;;27.40;86.00;;;;;;5033819;28;20040;-75
2023/08/19 05:18:20;;;;;;;6.97;6.28;;;27.40;85.90;;;;;;5033879;28;20100;-75
2023/08/19 05:20:46;;;;;;;7.35;5.93;;;27.40;85.80;;;;;;5033595;28;20033;-82
2023/08/19 05:23:12;;;;;;;7.68;6.65;;;27.50;85.80;;;;;;5028194;28;20538;-75
2023/08/19 05:25:38;;;;;;;7.60;6.80;;;27.50;85.50;;;;;;5033976;28;20026;-75
2023/08/19 05:28:04;;;;;;;7.82;6.15;;;27.40;85.90;;;;;;5034450;28;20359;-75
2023/08/19 05:30:29;;;;;;;6.63;5.72;;;27.50;85.20;;;;;;5029490;28;20385;-76
2023/08/19 05:32:55;;;;;;;7.70;5.47;;;27.40;85.00;;;;;;5032766;28;20037;-76
2023/08/19 05:35:21;;;;;;;8.85;5.70;;;27.40;85.10;;;;;;5034085;28;20083;-75
2023/08/19 05:37:47;;;;;;;6.85;5.80;;;27.40;85.10;;;;;;5034532;28;20047;-75
2023/08/19 05:40:12;;;;;;;6.65;5.97;;;27.40;85.00;;;;;;5033946;28;20075;-75
2023/08/19 05:42:38;;;;;;;6.00;5.50;;;27.40;85.00;;;;;;5033585;28;20075;-76
2023/08/19 05:45:04;;;;;;;5.95;5.35;;;27.40;85.00;;;;;;5033130;28;20075;-76
2023/08/19 05:47:30;;;;;;;7.50;5.40;;;27.30;84.80;;;;;;5015882;28;20030;-75
2023/08/19 05:49:56;;;;;;;9.82;6.10;;;27.40;85.00;;;;;;5034881;28;20040;-76
2023/08/19 05:52:21;;;;;;;5.93;5.43;;;27.40;84.90;;;;;;5033585;28;20029;-75
2023/08/19 05:54:47;;;;;;;7.40;5.63;;;27.40;84.80;;;;;;5034127;28;20049;-76
2023/08/19 05:57:13;;;;;;;6.57;5.93;;;27.50;84.70;;;;;;5034182;28;20100;-76
2023/08/19 05:59:38;;;;;;;7.50;5.90;;;27.50;84.70;;;;;;5034541;28;20380;-76
2023/08/19 06:02:04;;;;;;;6.05;5.40;;;27.50;84.70;;;;;;5031097;28;20033;-76
2023/08/19 06:04:30;;;;;;;6.40;5.80;;;27.40;84.70;;;;;;5033618;28;20508;-75
2023/08/19 06:06:55;;;;;;;8.23;5.43;;;27.40;84.70;;;;;;5033999;28;20045;-76
2023/08/19 06:09:21;;;;;;;6.90;5.25;;;27.40;84.70;;;;;;5034086;28;20101;-75
2023/08/19 06:11:52;;;;;;;6.53;5.65;;;27.40;84.90;;;;;;5033178;28;20037;-75
2023/08/19 06:14:18;;;;;;;10.02;5.00;;;27.40;85.00;;;;;;5033933;28;20033;-75
2023/08/19 06:16:45;;;;;;;5.78;4.97;;;27.50;85.00;;;;;;5023527;28;20488;-75
2023/08/19 06:19:11;;;;;;;8.50;5.38;;;27.50;84.80;;;;;;5033899;28;20033;-76
2023/08/19 06:21:37;;;;;;;6.25;4.97;;;27.50;84.70;;;;;;5032896;28;20052;-75
2023/08/19 06:24:03;;;;;;;5.45;4.95;;;27.60;84.60;;;;;;5032155;28;20465;-75
2023/08/19 06:26:29;;;;;;;7.85;4.70;;;27.60;84.40;;;;;;5034129;28;20041;-75
2023/08/19 06:28:55;;;;;;;6.05;4.90;;;27.60;84.30;;;;;;5034038;28;20040;-75
2023/08/19 06:31:21;;;;;;;5.80;5.15;;;27.70;84.20;;;;;;5033586;28;20484;-75
2023/08/19 06:33:47;;;;;;;5.80;4.75;;;27.70;83.90;;;;;;5032809;28;20029;-75
2023/08/19 06:36:19;;;;;;;5.32;4.82;;;27.70;83.70;;;;;;5033647;28;20029;-76
2023/08/19 06:38:49;;;;;;;7.95;5.20;;;27.70;83.50;;;;;;5033790;28;20026;-75
2023/08/19 06:41:17;;;;;;;8.23;6.05;;;27.80;83.50;;;;;;5033254;28;20083;-75
2023/08/19 06:43:43;;;;;;;5.78;5.22;;;27.70;83.30;;;;;;5015711;28;20039;-75
2023/08/19 06:46:10;;;;;;;5.80;4.93;;;27.80;83.40;;;;;;5033196;28;20021;-76
2023/08/19 06:48:36;;;;;;;6.65;4.70;;;27.80;83.30;;;;;;5033448;28;20029;-75
2023/08/19 06:51:03;;;;;;;6.82;5.25;;;27.90;83.30;;;;;;5033148;28;20033;-76
2023/08/19 06:53:29;;;;;;;7.70;4.95;;;27.90;83.00;;;;;;5029321;28;20452;-76
2023/08/19 06:56:08;;;;;;;5.47;4.97;;;27.90;82.80;;;;;;5033293;28;20112;-76
2023/08/19 06:58:39;;;;;;;5.22;4.82;;;28.00;82.40;;;;;;5034114;28;20091;-76
2023/08/19 07:01:12;;;;;;;8.68;4.22;;;28.00;82.00;;;;;;5033243;28;20488;-76
2023/08/19 07:03:38;;;;;;;4.95;4.50;;;28.00;82.00;;;;;;5032042;28;20055;-76
2023/08/19 07:06:06;;;;;;;6.80;4.93;;;28.10;82.20;;;;;;5033379;28;20049;-76
2023/08/19 07:08:36;;;;;;;7.03;4.65;;;28.10;82.00;;;;;;5030782;28;20120;-76
2023/08/19 07:11:02;;;;;;;4.90;4.40;;;28.20;81.90;;;;;;5019965;28;20095;-76
2023/08/19 07:13:28;;;;;;;4.68;4.05;;;28.20;81.80;;;;;;5031719;28;20034;-76
2023/08/19 07:16:02;;;;;;;9.60;4.72;;;28.20;81.40;;;;;;5033053;28;20412;-75
2023/08/19 07:18:39;;;;;;;5.40;4.22;;;28.20;81.50;;;;;;5016406;28;20044;-76
2023/08/19 07:21:09;;;;;;;5.38;4.20;;;28.20;81.40;;;;;;5030740;28;20745;-76
2023/08/19 07:23:37;;;;;;;;;;;28.30;81.50;;;;;;5032592;28;20374;-76
2023/08/19 07:26:03;;;;;;;4.53;4.05;;;28.40;81.40;;;;;;5020069;28;19905;-76
2023/08/19 07:28:30;;;;;;;6.45;4.53;;;28.50;81.20;;;;;;5033078;28;20116;-76
2023/08/19 07:30:57;;;;;;;5.53;4.38;;;28.60;81.10;;;;;;5032526;28;20029;-76
2023/08/19 07:33:22;;;;;;;5.18;4.63;;;28.70;80.90;;;;;;5031340;28;20504;-76
2023/08/19 07:35:48;;;;;;;5.63;5.13;;;28.80;80.90;;;;;;5032412;28;20033;-76
2023/08/19 07:38:14;;;;;;;6.05;4.75;;;28.90;80.70;;;;;;5028533;28;20040;-75
2023/08/19 07:40:39;;;;;;;6.38;4.68;;;28.90;80.60;;;;;;5031951;28;20018;-75
2023/08/19 07:43:05;;;;;;;9.18;4.72;;;29.00;80.40;;;;;;5030559;28;20487;-76
2023/08/19 07:45:31;;;;;;;4.88;4.38;;;29.10;80.40;;;;;;5032546;28;20117;-76
2023/08/19 07:47:57;;;;;;;6.15;4.57;;;29.10;80.10;;;;;;5026637;28;20021;-76
2023/08/19 07:50:24;;;;;;;5.18;4.68;;;29.20;79.90;;;;;;5002077;28;20047;-75
2023/08/19 07:52:49;;;;;;;5.50;4.70;;;29.30;79.30;;;;;;5030185;28;20034;-75
2023/08/19 07:55:15;;;;;;;6.13;4.40;;;29.30;79.20;;;;;;5021013;28;20542;-76
2023/08/19 07:57:41;;;;;;;5.43;4.60;;;29.30;79.30;;;;;;5028249;28;20033;-75
2023/08/19 08:00:09;;;;;;;5.57;4.57;;;29.40;79.20;;;;;;5029921;28;20381;-76
2023/08/19 08:02:35;;;;;;;4.97;4.30;;;29.40;79.00;;;;;;5011642;28;20357;-74
2023/08/19 08:05:02;;;;;;;5.50;4.18;;;29.50;79.20;;;;;;5030684;28;20041;-76
2023/08/19 08:07:28;;;;;;;5.28;4.78;;;29.60;79.10;;;;;;5028935;28;20045;-75
2023/08/19 08:09:54;;;;;;;4.72;4.30;;;29.70;79.00;;;;;;5029336;28;20080;-76
2023/08/19 08:12:19;;;;;;;5.85;4.50;;;29.80;78.70;;;;;;5028566;28;20053;-76
2023/08/19 08:14:45;;;;;;;5.15;4.15;;;29.80;77.80;;;;;;5029308;28;20052;-76
2023/08/19 08:17:11;;;;;;;4.57;4.18;;;29.90;77.80;;;;;;5030553;28;20064;-76
2023/08/19 08:19:38;;;;;;;4.93;4.13;;;30.00;78.20;;;;;;5012803;28;20061;-76
2023/08/19 08:22:05;;;;;;;4.60;4.18;;;30.10;78.30;;;;;;5030141;28;20025;-76
2023/08/19 08:24:31;;;;;;;4.97;4.40;;;30.20;78.30;;;;;;5030833;28;20026;-76
2023/08/19 08:26:57;;;;;;;4.68;4.13;;;30.20;78.10;;;;;;5030456;28;20094;-76
2023/08/19 08:29:24;;;;;;;7.85;4.22;;;30.30;77.60;;;;;;5030187;28;20025;-76
2023/08/19 08:31:49;;;;;;;6.65;4.30;;;30.40;76.90;;;;;;5029900;28;20038;-78
2023/08/19 08:34:15;;;;;;;5.35;4.00;;;30.40;76.50;;;;;;5030994;28;20022;-75
2023/08/19 08:36:41;;;;;;;6.30;4.50;;;30.40;77.10;;;;;;5031123;28;20381;-75
2023/08/19 08:39:07;;;;;;;6.10;4.53;;;30.50;76.60;;;;;;5028362;28;20479;-78
2023/08/19 08:41:37;;;;;;;5.10;4.15;;;30.60;76.00;;;;;;5029120;28;20038;-78
2023/08/19 08:44:04;;;;;;;5.00;4.50;;;30.60;76.20;;;;;;5031678;28;20037;-79
2023/08/19 08:46:30;;;;;;;6.10;4.47;;;30.70;76.50;;;;;;5034392;28;20200;-78
2023/08/19 08:48:57;;;;;;;4.43;4.03;;;30.70;76.00;;;;;;5015978;28;20047;-78
2023/08/19 08:51:24;;;;;;;4.90;4.40;;;30.80;75.90;;;;;;5032399;28;20021;-78
2023/08/19 08:53:52;;;;;;;4.50;4.10;;;30.90;75.60;;;;;;5017534;28;20064;-77
2023/08/19 08:56:18;;;;;;;4.15;3.83;;;31.00;74.70;;;;;;5031767;28;20469;-77
2023/08/19 08:58:44;;;;;;;5.07;4.68;;;31.10;74.60;;;;;;5022401;28;20359;-78
2023/08/19 09:01:10;;;;;;;5.97;4.30;;;31.10;74.50;;;;;;5034777;28;20024;-78
2023/08/19 09:03:39;;;;;;;4.45;4.10;;;31.10;75.10;;;;;;5033174;28;20116;-78
2023/08/19 09:06:24;;;;;;;4.97;4.47;;;31.20;75.00;;;;;;5028970;28;21397;-77
2023/08/19 09:09:02;;;;;;;5.30;4.38;;;31.40;75.30;;;;;;5034073;28;20120;-77
2023/08/19 09:11:33;;;;;;;6.25;4.70;;;31.50;74.70;;;;;;5031158;28;20477;-77
2023/08/19 09:14:10;;;;;;;6.45;4.85;;;31.50;73.70;;;;;;5035114;28;20029;-77
2023/08/19 09:16:36;;;;;;;7.68;4.53;;;31.60;72.70;;;;;;5034484;28;20032;-77
2023/08/19 09:19:02;;;;;;;5.25;4.13;;;31.60;73.30;;;;;;5033264;28;20122;-77
2023/08/19 09:21:28;;;;;;;5.13;4.63;;;31.70;73.40;;;;;;5034410;28;20477;-78
2023/08/19 09:23:54;;;;;;;5.10;4.60;;;31.80;72.40;;;;;;5034996;28;20025;-78
2023/08/19 09:26:19;;;;;;;5.88;5.05;;;31.80;73.00;;;;;;5033360;28;20477;-78
2023/08/19 09:28:45;;;;;;;5.60;5.00;;;31.90;72.90;;;;;;5031037;28;20121;-79
2023/08/19 09:31:30;;;;;;;5.22;4.45;;;32.00;72.50;;;;;;5029079;28;20406;-79
2023/08/19 09:33:55;;;;;;;6.80;5.07;;;32.10;72.50;;;;;;5028955;28;20095;-81
2023/08/19 09:36:25;;;;;;;4.97;4.47;;;32.20;72.70;;;;;;5026988;28;20034;-80
2023/08/19 09:38:55;;;;;;;5.88;5.32;;;32.30;72.50;;;;;;5029404;28;20087;-80
2023/08/19 09:41:28;;;;;;;4.93;4.43;;;32.40;72.20;;;;;;5024097;28;20025;-80
2023/08/19 09:43:55;;;;;;;5.30;4.80;;;32.50;72.10;;;;;;5034393;28;20025;-82
2023/08/19 09:46:21;;;;;;;5.03;4.43;;;32.60;72.30;;;;;;5045014;28;20037;-82
2023/08/19 09:48:59;;;;;;;5.30;4.80;;;32.80;72.80;;;;;;5017276;28;20116;-76
2023/08/19 09:51:27;;;;;;;;;;;32.90;72.20;;;;;;5010852;28;20022;-82
2023/08/19 09:53:53;;;;;;;5.00;4.28;;;32.90;71.90;;;;;;5030507;28;19913;-82
2023/08/19 09:56:21;;;;;;;4.82;4.43;;;33.10;72.60;;;;;;5032712;28;20481;-82
2023/08/19 09:58:49;;;;;;;5.68;4.78;;;33.10;72.40;;;;;;5030444;28;20025;-82
2023/08/19 10:01:15;;;;;;;5.20;4.60;;;33.20;72.20;;;;;;5023997;28;20053;-82
2023/08/19 10:03:43;;;;;;;5.63;5.10;;;33.30;71.90;;;;;;5037638;28;20121;-81
2023/08/19 10:06:14;;;;;;;5.85;4.18;;;33.40;71.60;;;;;;5034085;28;20115;-77
2023/08/19 10:08:45;;;;;;;7.00;4.53;;;33.50;71.10;;;;;;5032601;28;20033;-78
2023/08/19 10:11:14;;;;;;;4.82;4.38;;;33.60;71.10;;;;;;5033207;28;20029;-77
2023/08/19 10:13:42;;;;;;;7.18;4.40;;;33.70;70.50;;;;;;5032308;28;20057;-77
2023/08/19 10:16:08;;;;;;;4.82;4.38;;;33.80;70.10;;;;;;5034034;28;20025;-77
2023/08/19 10:18:37;;;;;;;5.03;3.90;;;33.90;70.10;;;;;;5032408;28;20025;-77
2023/08/19 10:21:07;;;;;;;5.82;4.53;;;34.00;69.70;;;;;;5033855;28;20429;-77
2023/08/19 10:23:34;;;;;;;6.45;4.65;;;34.10;69.40;;;;;;5032324;28;20101;-77
2023/08/19 10:26:00;;;;;;;6.00;4.40;;;34.20;69.00;;;;;;5022053;28;20065;-77
2023/08/19 10:28:27;;;;;;;5.03;4.32;;;34.30;68.80;;;;;;5028083;28;20064;-77
2023/08/19 10:31:07;;;;;;;4.75;4.35;;;34.40;68.90;;;;;;5033714;28;20029;-76
2023/08/19 10:33:43;;;;;;;4.90;4.28;;;34.50;68.50;;;;;;5032016;28;20440;-77
2023/08/19 10:36:13;;;;;;;4.53;4.13;;;34.70;68.00;;;;;;5030458;28;20025;-77
2023/08/19 10:38:43;;;;;;;4.70;4.32;;;34.80;67.50;;;;;;5032465;28;20446;-77
2023/08/19 10:41:28;;;;;;;4.55;4.15;;;34.90;67.30;;;;;;5033637;28;20028;-77
2023/08/19 10:44:11;;;;;;;6.63;4.60;;;35.00;66.20;;;;;;5007371;28;20084;-77
2023/08/19 10:46:37;;;;;;;4.75;4.35;;;35.00;66.50;;;;;;5048852;28;20040;-77
2023/08/19 10:49:05;;;;;;;4.45;4.05;;;35.10;66.60;;;;;;5031909;28;20029;-77
2023/08/19 10:51:57;;;;;;;4.78;4.05;;;35.20;66.10;;;;;;5032163;28;20095;-77
2023/08/19 10:54:42;;;;;;;5.50;4.40;;;35.40;66.20;;;;;;5030807;28;20025;-77
2023/08/19 10:57:15;;;;;;;5.07;4.57;;;35.60;65.80;;;;;;5033435;28;20382;-77
2023/08/19 10:59:46;;;;;;;5.80;4.40;;;35.70;65.30;;;;;;5031347;28;20115;-76
2023/08/19 11:02:13;;;;;;;6.75;5.03;;;35.80;65.30;;;;;;5032736;28;20953;-76
2023/08/19 11:04:47;;;;;;;5.60;5.05;;;35.90;65.10;;;;;;5013596;28;20397;-77
2023/08/19 11:07:13;;;;;;;6.13;4.82;;;36.00;64.20;;;;;;5032550;28;20033;-77
2023/08/19 11:09:41;;;;;;;5.32;4.72;;;36.00;64.00;;;;;;5030847;28;20358;-76
2023/08/19 11:12:07;;;;;;;5.28;4.32;;;36.00;64.30;;;;;;5032648;28;20496;-77
2023/08/19 11:14:33;;;;;;;5.63;4.90;;;36.00;64.40;;;;;;5026197;28;20037;-83
2023/08/19 11:16:58;;;;;;;5.15;4.32;;;36.10;64.20;;;;;;5014895;28;20491;-82
2023/08/19 11:19:25;;;;;;;5.47;4.50;;;36.30;64.60;;;;;;5030041;28;20025;-83
2023/08/19 11:21:51;;;;;;;7.03;5.20;;;36.50;64.00;;;;;;5032247;28;20053;-82
2023/08/19 11:24:17;;;;;;;6.03;4.88;;;36.60;64.00;;;;;;5013589;28;20068;-82
2023/08/19 11:26:44;;;;;;;8.68;4.38;;;36.80;63.20;;;;;;5032131;28;20057;-82
2023/08/19 11:29:14;;;;;;;6.00;4.65;;;37.00;62.80;;;;;;5013416;28;20033;-83
2023/08/19 11:31:41;;;;;;;5.63;4.80;;;37.20;62.10;;;;;;5031533;28;20057;-78
2023/08/19 11:34:08;;;;;;;6.45;4.70;;;37.30;62.30;;;;;;5031585;28;20033;-79
2023/08/19 11:36:36;;;;;;;5.22;4.72;;;37.40;62.10;;;;;;5032635;28;20393;-77
2023/08/19 11:39:04;;;;;;;5.55;4.38;;;37.50;61.60;;;;;;5031164;28;20045;-78
2023/08/19 11:41:30;;;;;;;5.85;4.88;;;37.70;61.00;;;;;;5028246;28;20037;-81
2023/08/19 11:43:57;;;;;;;4.45;4.05;;;37.80;60.90;;;;;;5029893;28;20037;-82
2023/08/19 11:46:27;;;;;;;4.43;3.95;;;38.10;60.30;;;;;;5031315;28;20532;-82
2023/08/19 11:48:53;;;;;;;6.97;5.05;;;38.40;59.70;;;;;;5027293;28;20092;-81
2023/08/19 11:51:21;;;;;;;4.63;4.22;;;38.60;59.20;;;;;;5031954;28;20033;-81
2023/08/19 11:53:53;;;;;;;5.60;4.70;;;38.90;58.90;;;;;;5031370;28;20060;-81
2023/08/19 11:56:20;;;;;;;5.70;4.60;;;39.10;58.70;;;;;;5022134;28;20131;-82
2023/08/19 11:58:49;;;;;;;7.13;4.82;;;39.20;58.10;;;;;;5011349;28;20034;-82
2023/08/19 12:01:19;;;;;;;4.75;4.35;;;39.40;58.20;;;;;;5026703;28;20032;-81
2023/08/19 12:03:47;;;;;;;12.77;4.57;;;39.60;57.80;;;;;;5024436;28;20061;-77
2023/08/19 12:06:14;;;;;;;4.97;4.47;;;39.70;56.80;;;;;;5028497;28;20064;-76
2023/08/19 12:08:41;;;;;;;5.43;4.07;;;39.80;56.60;;;;;;5030154;28;20027;-77
2023/08/19 12:11:08;;;;;;;5.20;4.13;;;39.90;56.60;;;;;;5029227;28;20025;-77
2023/08/19 12:13:34;;;;;;;7.00;4.57;;;40.00;56.30;;;;;;5011697;28;20033;-77
2023/08/19 12:16:00;;;;;;;4.32;3.92;;;40.20;56.20;;;;;;5030103;28;20022;-77
2023/08/19 12:18:29;;;;;;;6.10;4.35;;;40.30;56.00;;;;;;5032809;28;20029;-77
2023/08/19 12:20:54;;;;;;;5.97;5.37;;;40.30;55.40;;;;;;5034717;28;20034;-77
2023/08/19 12:23:20;;;;;;;5.05;4.50;;;40.20;54.80;;;;;;5035963;28;20468;-77
2023/08/19 12:25:57;;;;;;;5.88;5.28;;;40.20;55.00;;;;;;5031847;28;20068;-77
2023/08/19 12:28:24;;;;;;;5.18;4.25;;;40.20;54.60;;;;;;5031625;28;20053;-77
2023/08/19 12:30:53;;;;;;;6.93;4.40;;;40.30;55.20;;;;;;5035527;28;20124;-77
2023/08/19 12:33:20;;;;;;;5.75;5.07;;;40.30;55.30;;;;;;5034960;28;20052;-77
2023/08/19 12:35:46;;;;;;;6.95;5.38;;;40.40;55.20;;;;;;5034991;28;20037;-77
2023/08/19 12:38:18;;;;;;;5.28;4.65;;;40.40;54.70;;;;;;5033784;28;20446;-77
2023/08/19 12:40:45;;;;;;;6.70;4.43;;;40.40;54.80;;;;;;5032413;28;20525;-77
2023/08/19 12:43:12;;;;;;;5.80;4.75;;;40.30;55.00;;;;;;5023820;28;20026;-77
2023/08/19 12:45:38;;;;;;;6.05;4.93;;;40.40;55.00;;;;;;5035285;28;20037;-77
2023/08/19 12:48:04;;;;;;;5.45;4.47;;;40.40;54.50;;;;;;5033304;28;20065;-77
2023/08/19 12:50:30;;;;;;;10.38;4.65;;;40.40;54.40;;;;;;5035367;28;20497;-77
2023/08/19 12:52:56;;;;;;;5.20;4.70;;;40.50;54.80;;;;;;5034173;28;20022;-77